createdAt,value
2019-05-13T00:00:36.511Z,40.40
2019-05-13T00:02:39.142Z,40.50
2019-05-13T00:04:43.652Z,40.60
2019-05-13T00:06:53.978Z,40.60
2019-05-13T00:08:46.915Z,40.60
2019-05-13T00:10:50.259Z,40.80
2019-05-13T00:12:53.997Z,40.60
2019-05-13T00:14:56.321Z,40.70
2019-05-13T00:16:58.875Z,40.80
2019-05-13T00:19:03.967Z,40.80
2019-05-13T00:21:04.076Z,40.70
2019-05-13T00:23:06.627Z,40.70
2019-05-13T00:25:09.305Z,40.80
2019-05-13T00:27:14.017Z,40.80
2019-05-13T00:29:15.099Z,40.80
2019-05-13T00:31:17.743Z,40.80
2019-05-13T00:33:20.417Z,40.80
2019-05-13T00:35:23.413Z,40.80
2019-05-13T00:37:25.563Z,40.80
2019-05-13T00:39:28.242Z,40.80
2019-05-13T00:41:30.947Z,40.90
2019-05-13T00:43:34.007Z,40.90
2019-05-13T00:45:36.059Z,40.90
2019-05-13T00:47:39.140Z,40.90
2019-05-13T00:49:43.552Z,40.90
2019-05-13T00:51:44.648Z,40.90
2019-05-13T00:53:48.579Z,41.00
2019-05-13T00:55:53.419Z,40.90
2019-05-13T00:57:54.182Z,41.00
2019-05-13T00:59:56.723Z,41.00
2019-05-13T01:01:59.295Z,41.00
2019-05-13T01:04:04.015Z,41.00
2019-05-13T01:06:04.555Z,41.00
2019-05-13T01:08:07.399Z,41.10
2019-05-13T01:10:09.976Z,41.10
2019-05-13T01:12:13.376Z,41.10
2019-05-13T01:14:15.259Z,41.20
2019-05-13T01:16:17.843Z,41.30
2019-05-13T01:18:23.271Z,41.40
2019-05-13T01:20:23.785Z,41.40
2019-05-13T01:22:26.375Z,41.50
2019-05-13T01:24:28.923Z,41.50
2019-05-13T01:26:33.605Z,41.50
2019-05-13T01:28:34.606Z,41.60
2019-05-13T01:30:36.970Z,41.60
2019-05-13T01:32:39.556Z,41.70
2019-05-13T01:34:44.222Z,41.60
2019-05-13T01:36:44.881Z,41.70
2019-05-13T01:38:48.167Z,41.80
2019-05-13T01:40:50.876Z,41.80
2019-05-13T01:42:54.177Z,41.90
2019-05-13T01:44:56.019Z,41.90
2019-05-13T01:46:58.700Z,42.00
2019-05-13T01:49:01.302Z,41.90
2019-05-13T01:51:04.087Z,42.00
2019-05-13T01:53:06.409Z,42.00
2019-05-13T01:55:09.098Z,42.00
2019-05-13T01:57:11.662Z,42.10
2019-05-13T01:59:15.190Z,42.00
2019-05-13T02:01:16.926Z,42.00
2019-05-13T02:03:19.480Z,42.10
2019-05-13T02:05:24.113Z,42.10
2019-05-13T02:07:24.631Z,42.10
2019-05-13T02:09:27.210Z,42.10
2019-05-13T02:11:29.894Z,42.10
2019-05-13T02:13:34.383Z,42.10
2019-05-13T02:15:35.868Z,42.10
2019-05-13T02:17:38.617Z,42.10
2019-05-13T02:19:41.176Z,42.10
2019-05-13T02:21:44.002Z,42.10
2019-05-13T02:23:46.446Z,42.70
2019-05-13T02:25:49.009Z,42.10
2019-05-13T02:27:54.104Z,42.10
2019-05-13T02:29:54.276Z,42.10
2019-05-13T02:31:56.839Z,42.10
2019-05-13T02:34:02.490Z,42.00
2019-05-13T02:36:03.469Z,42.00
2019-05-13T02:38:19.849Z,42.00
2019-05-13T02:40:08.159Z,42.10
2019-05-13T02:42:13.252Z,42.10
2019-05-13T02:44:13.767Z,42.00
2019-05-13T02:46:17.071Z,42.10
2019-05-13T02:48:23.420Z,42.00
2019-05-13T02:50:22.732Z,42.00
2019-05-13T02:52:24.839Z,42.10
2019-05-13T02:54:27.507Z,42.00
2019-05-13T02:56:32.823Z,42.00
2019-05-13T02:58:33.884Z,42.00
2019-05-13T03:00:35.980Z,42.00
2019-05-13T03:02:38.620Z,42.10
2019-05-13T03:04:43.322Z,42.10
2019-05-13T03:06:43.844Z,42.10
2019-05-13T03:08:50.122Z,42.10
2019-05-13T03:10:48.915Z,42.20
2019-05-13T03:12:53.429Z,42.20
2019-05-13T03:14:54.155Z,42.20
2019-05-13T03:17:03.234Z,41.90
2019-05-13T03:19:03.202Z,42.20
2019-05-13T03:21:06.006Z,42.20
2019-05-13T03:23:13.069Z,42.30
2019-05-13T03:25:13.182Z,42.30
2019-05-13T03:27:20.005Z,42.30
2019-05-13T03:29:18.004Z,42.30
2019-05-13T03:31:25.669Z,42.30
2019-05-13T03:33:27.977Z,42.30
2019-05-13T03:35:27.598Z,42.40
2019-05-13T03:37:29.120Z,42.50
2019-05-13T03:39:33.160Z,42.40
2019-05-13T03:41:34.229Z,42.40
2019-05-13T03:43:36.949Z,42.40
2019-05-13T03:45:39.509Z,42.50
2019-05-13T03:47:42.655Z,42.50
2019-05-13T03:49:46.015Z,42.60
2019-05-13T03:51:48.551Z,42.60
2019-05-13T03:53:53.494Z,42.60
2019-05-13T03:55:54.341Z,42.60
2019-05-13T03:57:56.780Z,42.60
2019-05-13T04:00:03.232Z,42.60
2019-05-13T04:02:02.905Z,42.70
2019-05-13T04:04:05.142Z,42.70
2019-05-13T04:06:07.685Z,42.70
2019-05-13T04:08:12.991Z,42.70
2019-05-13T04:10:13.295Z,42.70
2019-05-13T04:12:16.086Z,42.80
2019-05-13T04:14:22.891Z,42.80
2019-05-13T04:16:23.925Z,42.80
2019-05-13T04:18:25.521Z,42.80
2019-05-13T04:20:28.101Z,42.80
2019-05-13T04:22:33.332Z,42.80
2019-05-13T04:24:33.740Z,42.80
2019-05-13T04:26:36.003Z,42.80
2019-05-13T04:28:39.379Z,42.70
2019-05-13T04:30:43.548Z,42.70
2019-05-13T04:32:44.556Z,42.70
2019-05-13T04:34:47.134Z,42.70
2019-05-13T04:36:52.031Z,42.70
2019-05-13T04:38:53.056Z,42.70
2019-05-13T04:40:54.940Z,42.70
2019-05-13T04:42:57.533Z,42.80
2019-05-13T04:45:03.009Z,42.80
2019-05-13T04:47:03.969Z,42.90
2019-05-13T04:49:06.484Z,42.80
2019-05-13T04:51:09.055Z,42.80
2019-05-13T04:53:13.661Z,42.80
2019-05-13T04:55:14.815Z,42.90
2019-05-13T04:57:17.495Z,42.90
2019-05-13T04:59:22.702Z,42.90
2019-05-13T05:01:52.142Z,42.80
2019-05-13T05:03:53.223Z,42.80
2019-05-13T05:05:53.157Z,42.70
2019-05-13T05:07:56.494Z,42.80
2019-05-13T05:10:29.377Z,42.90
2019-05-13T05:12:24.595Z,42.90
2019-05-13T05:14:41.805Z,42.80
2019-05-13T05:16:52.374Z,42.70
2019-05-13T05:19:23.698Z,42.80
2019-05-13T05:21:23.986Z,42.70
2019-05-13T05:23:43.250Z,42.60
2019-05-13T05:25:54.328Z,42.60
2019-05-13T05:27:58.656Z,42.70
2019-05-13T05:30:05.106Z,42.80
2019-05-13T05:32:14.561Z,42.90
2019-05-13T05:34:35.443Z,43.10
2019-05-13T05:36:51.974Z,43.10
2019-05-13T05:39:14.279Z,43.00
2019-05-13T05:41:16.818Z,42.90
2019-05-13T05:43:22.311Z,43.40
2019-05-13T05:45:22.925Z,42.80
2019-05-13T05:47:25.483Z,42.90
2019-05-13T05:49:28.075Z,42.90
2019-05-13T05:51:31.482Z,42.90
2019-05-13T05:53:33.318Z,42.90
2019-05-13T05:55:36.041Z,42.90
2019-05-13T05:57:38.711Z,42.80
2019-05-13T05:59:42.971Z,42.70
2019-05-13T06:01:45.336Z,42.60
2019-05-13T06:03:48.454Z,42.50
2019-05-13T06:05:51.316Z,42.60
2019-05-13T06:07:53.567Z,42.50
2019-05-13T06:09:56.167Z,42.40
2019-05-13T06:11:58.715Z,42.40
2019-05-13T06:14:02.317Z,42.30
2019-05-13T06:16:03.980Z,42.30
2019-05-13T06:18:06.847Z,42.30
2019-05-13T06:20:09.470Z,42.50
2019-05-13T06:22:12.423Z,42.60
2019-05-13T06:24:14.689Z,42.90
2019-05-13T06:26:17.255Z,43.90
2019-05-13T06:28:21.736Z,43.40
2019-05-13T06:30:22.799Z,43.20
2019-05-13T06:32:26.565Z,43.00
2019-05-13T06:34:28.103Z,42.80
2019-05-13T06:36:31.620Z,42.70
2019-05-13T06:38:33.420Z,42.60
2019-05-13T06:40:35.974Z,42.50
2019-05-13T06:42:41.572Z,42.50
2019-05-13T06:44:42.204Z,42.30
2019-05-13T06:46:44.564Z,42.30
2019-05-13T06:48:47.096Z,42.20
2019-05-13T06:50:51.937Z,42.20
2019-05-13T06:52:52.713Z,42.10
2019-05-13T06:54:55.260Z,42.10
2019-05-13T06:56:57.841Z,42.00
2019-05-13T06:59:01.454Z,41.90
2019-05-13T07:01:03.992Z,41.70
2019-05-13T07:03:06.727Z,41.50
2019-05-13T07:05:11.821Z,41.40
2019-05-13T07:07:16.896Z,41.30
2019-05-13T07:09:15.266Z,41.30
2019-05-13T07:11:21.735Z,41.20
2019-05-13T07:13:21.782Z,40.80
2019-05-13T07:15:23.762Z,40.80
2019-05-13T07:17:26.341Z,40.50
2019-05-13T07:19:32.400Z,40.40
2019-05-13T07:21:33.044Z,40.30
2019-05-13T07:23:36.355Z,40.20
2019-05-13T07:25:41.801Z,40.20
2019-05-13T07:27:42.451Z,40.20
2019-05-13T07:29:44.210Z,40.10
2019-05-13T07:31:47.567Z,40.20
2019-05-13T07:33:51.741Z,40.10
2019-05-13T07:35:58.259Z,40.10
2019-05-13T07:37:55.466Z,40.10
2019-05-13T07:39:58.816Z,40.10
2019-05-13T07:42:05.056Z,40.00
2019-05-13T07:44:03.907Z,40.00
2019-05-13T07:46:07.368Z,40.00
2019-05-13T07:48:20.765Z,40.00
2019-05-13T07:50:12.892Z,39.80
2019-05-13T07:52:15.210Z,39.80
2019-05-13T07:54:21.854Z,39.70
2019-05-13T07:56:22.071Z,39.70
2019-05-13T07:58:25.350Z,39.60
2019-05-13T08:00:27.960Z,39.50
2019-05-13T08:02:31.986Z,39.40
2019-05-13T08:04:34.132Z,39.30
2019-05-13T08:06:36.670Z,39.20
2019-05-13T08:08:41.659Z,39.10
2019-05-13T08:10:42.343Z,39.10
2019-05-13T08:12:44.916Z,39.10
2019-05-13T08:14:47.483Z,38.90
2019-05-13T08:16:51.836Z,38.90
2019-05-13T08:18:52.727Z,38.80
2019-05-13T08:20:56.022Z,38.80
2019-05-13T08:22:58.656Z,38.70
2019-05-13T08:25:03.058Z,38.60
2019-05-13T08:27:03.851Z,38.40
2019-05-13T08:29:06.528Z,38.20
2019-05-13T08:31:09.090Z,38.20
2019-05-13T08:33:12.500Z,38.00
2019-05-13T08:35:14.214Z,37.90
2019-05-13T08:37:16.754Z,37.90
2019-05-13T08:39:21.642Z,37.80
2019-05-13T08:41:23.569Z,37.70
2019-05-13T08:43:25.351Z,37.80
2019-05-13T08:45:28.468Z,37.70
2019-05-13T08:47:31.485Z,37.50
2019-05-13T08:49:33.786Z,37.40
2019-05-13T08:51:41.812Z,37.40
2019-05-13T08:53:42.553Z,37.40
2019-05-13T08:55:44.574Z,37.30
2019-05-13T08:57:52.229Z,37.20
2019-05-13T08:59:53.415Z,37.10
2019-05-13T09:01:56.154Z,37.00
2019-05-13T09:04:01.914Z,36.90
2019-05-13T09:06:02.860Z,37.00
2019-05-13T09:08:04.012Z,37.10
2019-05-13T09:10:06.594Z,37.10
2019-05-13T09:12:11.440Z,36.90
2019-05-13T09:14:11.737Z,36.70
2019-05-13T09:16:14.342Z,36.70
2019-05-13T09:18:16.987Z,37.00
2019-05-13T09:20:21.879Z,37.00
2019-05-13T09:22:22.331Z,36.60
2019-05-13T09:24:33.151Z,36.30
2019-05-13T09:26:27.592Z,36.20
2019-05-13T09:28:32.419Z,36.20
2019-05-13T09:30:32.819Z,36.10
2019-05-13T09:32:35.402Z,35.80
2019-05-13T09:34:37.974Z,35.40
2019-05-13T09:36:41.701Z,35.40
2019-05-13T09:38:43.664Z,35.20
2019-05-13T09:40:46.211Z,35.10
2019-05-13T09:42:52.076Z,35.10
2019-05-13T09:44:52.575Z,34.70
2019-05-13T09:46:54.039Z,34.40
2019-05-13T09:49:11.905Z,34.20
2019-05-13T09:51:02.147Z,33.90
2019-05-13T09:53:03.599Z,33.40
2019-05-13T09:55:22.040Z,33.30
2019-05-13T09:57:08.818Z,33.00
2019-05-13T09:59:11.890Z,32.80
2019-05-13T10:01:14.746Z,32.40
2019-05-13T10:03:17.296Z,32.40
2019-05-13T10:05:22.105Z,32.30
2019-05-13T10:07:23.072Z,32.20
2019-05-13T10:09:26.844Z,31.90
2019-05-13T10:11:29.378Z,32.00
2019-05-13T10:13:32.197Z,32.10
2019-05-13T10:15:34.645Z,32.10
2019-05-13T10:17:37.234Z,32.00
2019-05-13T10:19:42.012Z,31.80
2019-05-13T10:21:42.786Z,31.80
2019-05-13T10:23:45.738Z,31.90
2019-05-13T10:25:48.375Z,31.90
2019-05-13T10:27:50.931Z,31.40
2019-05-13T10:29:53.503Z,31.30
2019-05-13T10:31:56.174Z,30.90
2019-05-13T10:33:58.812Z,30.70
2019-05-13T10:36:03.311Z,30.40
2019-05-13T10:38:04.737Z,30.30
2019-05-13T10:40:07.316Z,29.90
2019-05-13T10:42:12.051Z,29.50
2019-05-13T10:44:12.672Z,29.30
2019-05-13T10:46:15.217Z,29.20
2019-05-13T10:48:17.762Z,28.70
2019-05-13T10:50:21.624Z,28.00
2019-05-13T10:52:23.575Z,27.70
2019-05-13T10:54:26.272Z,27.50
2019-05-13T10:56:28.983Z,27.40
2019-05-13T10:58:31.617Z,27.40
2019-05-13T11:00:51.686Z,27.40
2019-05-13T11:02:52.286Z,27.40
2019-05-13T11:04:55.452Z,27.30
2019-05-13T11:06:57.999Z,27.30
2019-05-13T11:09:02.182Z,27.10
2019-05-13T11:11:04.218Z,27.00
2019-05-13T11:13:10.622Z,27.20
2019-05-13T11:15:09.335Z,27.20
2019-05-13T11:17:13.174Z,26.80
2019-05-13T11:19:15.240Z,26.50
2019-05-13T11:21:17.912Z,26.40
2019-05-13T11:23:23.193Z,26.20
2019-05-13T11:25:24.579Z,26.20
2019-05-13T11:27:27.139Z,26.20
2019-05-13T11:29:32.389Z,26.50
2019-05-13T11:31:33.023Z,26.80
2019-05-13T11:33:34.987Z,26.80
2019-05-13T11:35:37.530Z,26.30
2019-05-13T11:37:40.111Z,25.90
2019-05-13T11:39:43.002Z,25.60
2019-05-13T11:41:45.294Z,25.50
2019-05-13T11:44:08.176Z,25.50
2019-05-13T11:45:51.786Z,25.40
2019-05-13T11:47:53.682Z,25.10
2019-05-13T11:49:56.499Z,25.10
2019-05-13T11:51:59.384Z,25.20
2019-05-13T11:54:02.575Z,25.40
2019-05-13T11:56:04.565Z,25.20
2019-05-13T11:58:07.203Z,24.70
2019-05-13T12:00:12.899Z,24.70
2019-05-13T12:02:13.642Z,24.70
2019-05-13T12:04:14.961Z,24.80
2019-05-13T12:06:17.499Z,25.00
2019-05-13T12:08:22.814Z,25.10
2019-05-13T12:10:22.907Z,24.80
2019-05-13T12:12:30.883Z,24.80
2019-05-13T12:15:04.996Z,25.10
2019-05-13T12:16:34.751Z,25.00
2019-05-13T12:18:33.989Z,25.00
2019-05-13T12:20:36.536Z,24.80
2019-05-13T12:22:39.113Z,24.60
2019-05-13T12:24:42.408Z,24.30
2019-05-13T12:26:44.403Z,24.10
2019-05-13T12:28:47.055Z,24.10
2019-05-13T12:30:53.148Z,23.70
2019-05-13T12:32:53.803Z,23.60
2019-05-13T12:34:56.347Z,23.80
2019-05-13T12:37:03.233Z,23.80
2019-05-13T12:39:02.488Z,23.80
2019-05-13T12:41:05.761Z,23.30
2019-05-13T12:43:08.218Z,23.30
2019-05-13T12:45:14.084Z,23.30
2019-05-13T12:47:13.364Z,23.30
2019-05-13T12:49:15.967Z,23.60
2019-05-13T12:51:18.614Z,24.00
2019-05-13T12:53:22.114Z,24.30
2019-05-13T12:55:23.948Z,23.90
2019-05-13T12:57:27.262Z,23.40
2019-05-13T12:59:32.052Z,23.30
2019-05-13T13:01:32.654Z,23.10
2019-05-13T13:03:35.217Z,22.80
2019-05-13T13:05:37.757Z,22.40
2019-05-13T13:07:42.375Z,22.40
2019-05-13T13:09:43.464Z,22.00
2019-05-13T13:11:45.783Z,21.70
2019-05-13T13:13:59.522Z,21.60
2019-05-13T13:15:52.780Z,21.30
2019-05-13T13:17:54.090Z,21.20
2019-05-13T13:20:04.696Z,21.30
2019-05-13T13:22:04.727Z,21.30
2019-05-13T13:24:04.355Z,21.10
2019-05-13T13:26:13.712Z,20.90
2019-05-13T13:28:12.104Z,21.20
2019-05-13T13:30:10.072Z,21.00
2019-05-13T13:32:13.402Z,20.90
2019-05-13T13:34:18.570Z,21.00
2019-05-13T13:36:17.715Z,21.10
2019-05-13T13:38:25.016Z,21.00
2019-05-13T13:40:28.366Z,21.10
2019-05-13T13:42:25.506Z,21.10
2019-05-13T13:44:28.115Z,21.00
2019-05-13T13:46:42.041Z,21.00
2019-05-13T13:48:33.473Z,20.90
2019-05-13T13:50:35.894Z,20.90
2019-05-13T13:52:39.311Z,20.80
2019-05-13T13:54:44.226Z,21.00
2019-05-13T13:56:44.827Z,21.20
2019-05-13T13:58:47.623Z,21.00
2019-05-13T14:01:01.760Z,20.70
2019-05-13T14:02:54.268Z,20.60
2019-05-13T14:04:55.437Z,20.50
2019-05-13T14:09:01.547Z,20.70
2019-05-13T14:11:03.202Z,20.60
2019-05-13T14:13:05.862Z,20.50
2019-05-13T14:15:08.403Z,20.50
2019-05-13T14:17:11.410Z,20.40
2019-05-13T14:19:15.319Z,20.40
2019-05-13T14:21:17.891Z,20.30
2019-05-13T14:23:21.277Z,20.20
2019-05-13T14:25:23.122Z,20.10
2019-05-13T14:27:25.667Z,20.30
2019-05-13T14:29:38.578Z,20.50
2019-05-13T14:31:32.378Z,20.40
2019-05-13T14:33:35.469Z,20.40
2019-05-13T14:35:37.197Z,20.50
2019-05-13T14:37:39.808Z,20.70
2019-05-13T14:39:42.590Z,20.90
2019-05-13T14:41:45.160Z,21.00
2019-05-13T14:43:48.230Z,20.90
2019-05-13T14:45:52.135Z,21.20
2019-05-13T14:47:53.484Z,21.30
2019-05-13T14:49:56.074Z,21.50
2019-05-13T14:52:01.237Z,21.60
2019-05-13T14:54:02.834Z,21.50
2019-05-13T14:56:05.132Z,21.50
2019-05-13T14:58:07.690Z,21.50
2019-05-13T15:00:10.240Z,21.50
2019-05-13T15:02:13.496Z,21.70
2019-05-13T15:04:17.663Z,21.70
2019-05-13T15:06:22.076Z,21.60
2019-05-13T15:08:25.784Z,21.60
2019-05-13T15:10:27.126Z,21.80
2019-05-13T15:12:32.225Z,21.80
2019-05-13T15:14:32.621Z,22.10
2019-05-13T15:16:35.212Z,22.10
2019-05-13T15:18:37.743Z,21.90
2019-05-13T15:20:41.704Z,21.90
2019-05-13T15:22:43.010Z,21.90
2019-05-13T15:24:45.571Z,22.00
2019-05-13T15:26:48.227Z,22.00
2019-05-13T15:28:51.876Z,22.00
2019-05-13T15:30:53.411Z,22.00
2019-05-13T15:32:56.059Z,22.10
2019-05-13T15:34:58.610Z,22.40
2019-05-13T15:37:01.991Z,22.40
2019-05-13T15:39:03.881Z,22.20
2019-05-13T15:41:06.451Z,22.30
2019-05-13T15:43:09.026Z,22.60
2019-05-13T15:45:12.486Z,22.50
2019-05-13T15:47:22.853Z,22.40
2019-05-13T15:49:16.833Z,22.40
2019-05-13T15:51:21.879Z,22.40
2019-05-13T15:53:22.335Z,22.40
2019-05-13T15:55:24.972Z,22.40
2019-05-13T15:57:29.855Z,22.60
2019-05-13T15:59:31.903Z,22.50
2019-05-13T16:01:34.442Z,22.60
2019-05-13T16:03:46.978Z,22.70
2019-05-13T16:10:53.258Z,22.80
2019-05-13T16:13:03.638Z,22.70
2019-05-13T16:20:51.858Z,23.00
2019-05-13T16:23:02.772Z,22.70
2019-05-13T16:30:51.688Z,23.00
2019-05-13T16:33:04.691Z,23.00
2019-05-13T16:35:18.009Z,23.10
2019-05-13T16:37:31.383Z,23.10
2019-05-13T16:39:43.661Z,22.80
2019-05-13T16:41:58.316Z,23.00
2019-05-13T16:50:51.874Z,23.00
2019-05-13T17:00:44.399Z,23.40
2019-05-13T17:10:51.387Z,23.80
2019-05-13T17:13:03.518Z,24.20
2019-05-13T17:20:42.961Z,24.20
2019-05-13T17:30:51.923Z,23.80
2019-05-13T17:32:53.273Z,22.50
2019-05-13T17:34:55.864Z,22.90
2019-05-13T17:36:58.446Z,22.80
2019-05-13T17:39:01.864Z,22.90
2019-05-13T17:41:03.579Z,22.70
2019-05-13T17:43:06.279Z,22.50
2019-05-13T17:45:11.208Z,22.30
2019-05-13T17:47:11.766Z,22.00
2019-05-13T17:49:14.259Z,21.80
2019-05-13T17:51:17.407Z,21.80
2019-05-13T17:53:21.640Z,21.70
2019-05-13T17:55:23.432Z,21.70
2019-05-13T17:57:25.983Z,21.60
2019-05-13T17:59:28.676Z,21.40
2019-05-13T18:01:31.684Z,21.50
2019-05-13T18:03:34.071Z,21.40
2019-05-13T18:05:37.426Z,21.30
2019-05-13T18:07:41.981Z,21.30
2019-05-13T18:09:42.571Z,21.20
2019-05-13T18:11:45.316Z,21.30
2019-05-13T18:13:47.864Z,21.50
2019-05-13T18:15:51.314Z,21.60
2019-05-13T18:17:54.707Z,21.20
2019-05-13T18:19:57.271Z,21.60
2019-05-13T18:22:01.965Z,21.60
2019-05-13T18:24:02.433Z,21.50
2019-05-13T18:26:04.962Z,21.40
2019-05-13T18:28:07.579Z,21.20
2019-05-13T18:30:11.458Z,21.10
2019-05-13T18:32:12.858Z,21.00
2019-05-13T18:34:16.462Z,21.00
2019-05-13T18:36:19.141Z,20.90
2019-05-13T18:38:22.456Z,20.90
2019-05-13T18:40:25.507Z,20.90
2019-05-13T18:42:28.183Z,20.90
2019-05-13T18:44:31.730Z,20.90
2019-05-13T18:46:33.551Z,20.90
2019-05-13T18:48:36.901Z,20.80
2019-05-13T18:50:41.777Z,20.70
2019-05-13T18:52:42.385Z,20.70
2019-05-13T18:54:46.696Z,20.90
2019-05-13T18:56:49.372Z,20.80
2019-05-13T18:58:52.731Z,20.80
2019-05-13T19:00:55.446Z,20.80
2019-05-13T19:03:01.314Z,21.00
2019-05-13T19:05:02.273Z,21.00
2019-05-13T19:07:07.693Z,21.00
2019-05-13T19:09:07.987Z,21.00
2019-05-13T19:11:11.905Z,21.10
2019-05-13T19:13:14.881Z,21.30
2019-05-13T19:15:18.379Z,21.40
2019-05-13T19:17:22.401Z,21.40
2019-05-13T19:19:24.369Z,21.40
2019-05-13T19:21:28.240Z,21.40
2019-05-13T19:23:31.758Z,21.30
2019-05-13T19:25:34.345Z,21.30
2019-05-13T19:27:36.985Z,21.40
2019-05-13T19:29:42.402Z,21.60
2019-05-13T19:31:44.699Z,21.60
2019-05-13T19:33:48.030Z,21.80
2019-05-13T19:35:51.795Z,21.80
2019-05-13T19:37:54.769Z,22.00
2019-05-13T19:39:58.088Z,22.10
2019-05-13T19:42:01.165Z,21.90
2019-05-13T19:44:04.466Z,22.20
2019-05-13T19:46:07.019Z,22.10
2019-05-13T19:48:11.913Z,22.40
2019-05-13T19:50:12.933Z,22.30
2019-05-13T19:52:15.716Z,22.40
2019-05-13T19:54:18.346Z,22.50
2019-05-13T19:56:21.922Z,22.80
2019-05-13T19:58:24.484Z,22.80
2019-05-13T20:00:27.702Z,22.90
2019-05-13T20:02:31.548Z,23.70
2019-05-13T20:04:33.821Z,23.10
2019-05-13T20:06:36.382Z,23.30
2019-05-13T20:08:41.120Z,23.50
2019-05-13T20:10:42.285Z,23.70
2019-05-13T20:12:45.971Z,24.00
2019-05-13T20:14:48.731Z,24.00
2019-05-13T20:16:53.463Z,24.20
2019-05-13T20:18:56.039Z,24.30
2019-05-13T20:21:01.052Z,24.50
2019-05-13T20:23:01.487Z,24.60
2019-05-13T20:25:03.979Z,24.60
2019-05-13T20:27:06.541Z,24.80
2019-05-13T20:29:10.186Z,24.90
2019-05-13T20:31:11.691Z,25.00
2019-05-13T20:33:15.210Z,25.10
2019-05-13T20:35:17.754Z,25.10
2019-05-13T20:37:21.471Z,25.20
2019-05-13T20:39:22.986Z,25.30
2019-05-13T20:41:25.531Z,25.40
2019-05-13T20:43:28.183Z,25.50
2019-05-13T20:45:31.235Z,25.50
2019-05-13T20:47:34.083Z,25.60
2019-05-13T20:49:36.678Z,25.80
2019-05-13T20:51:41.123Z,25.80
2019-05-13T20:53:41.832Z,25.90
2019-05-13T20:55:44.390Z,26.00
2019-05-13T20:57:46.947Z,26.00
2019-05-13T20:59:51.519Z,26.10
2019-05-13T21:01:52.978Z,26.20
2019-05-13T21:03:55.522Z,26.10
2019-05-13T21:05:58.075Z,26.20
2019-05-13T21:08:01.680Z,26.20
2019-05-13T21:10:03.207Z,26.30
2019-05-13T21:12:06.014Z,26.40
2019-05-13T21:14:08.695Z,26.40
2019-05-13T21:16:11.537Z,26.30
2019-05-13T21:18:13.934Z,26.30
2019-05-13T21:20:22.008Z,26.30
2019-05-13T21:22:21.275Z,26.30
2019-05-13T21:24:22.204Z,26.30
2019-05-13T21:26:24.738Z,26.30
2019-05-13T21:28:27.316Z,26.30
2019-05-13T21:30:29.897Z,26.30
2019-05-13T21:32:32.451Z,26.30
2019-05-13T21:34:35.140Z,26.30
2019-05-13T21:36:37.693Z,26.30
2019-05-13T21:38:40.254Z,26.30
2019-05-13T21:40:42.880Z,26.30
2019-05-13T21:42:45.470Z,26.30
2019-05-13T21:44:51.316Z,26.30
2019-05-13T21:46:52.254Z,26.30
2019-05-13T21:48:55.618Z,26.90
2019-05-13T21:50:58.154Z,26.30
2019-05-13T21:53:01.995Z,26.40
2019-05-13T21:55:03.381Z,26.40
2019-05-13T21:57:06.849Z,26.40
2019-05-13T21:59:09.394Z,26.40
2019-05-13T22:01:12.086Z,26.40
2019-05-13T22:03:14.750Z,26.50
2019-05-13T22:05:17.290Z,26.50
2019-05-13T22:07:22.097Z,26.50
2019-05-13T22:09:22.486Z,26.40
2019-05-13T22:11:25.030Z,26.50
2019-05-13T22:13:27.627Z,26.50
2019-05-13T22:15:32.303Z,26.60
2019-05-13T22:17:33.303Z,26.60
2019-05-13T22:19:36.072Z,26.60
2019-05-13T22:21:38.808Z,26.60
2019-05-13T22:23:42.118Z,26.70
2019-05-13T22:25:44.706Z,26.70
2019-05-13T22:27:47.256Z,26.70
2019-05-13T22:29:51.662Z,26.70
2019-05-13T22:31:54.376Z,26.70
2019-05-13T22:33:57.773Z,26.70
2019-05-13T22:36:01.664Z,26.70
2019-05-13T22:38:04.427Z,26.80
2019-05-13T22:40:07.019Z,26.70
2019-05-13T22:42:12.236Z,26.70
2019-05-13T22:44:13.243Z,26.70
2019-05-13T22:46:15.798Z,26.80
2019-05-13T22:48:22.204Z,26.90
2019-05-13T22:50:22.541Z,26.80
2019-05-13T22:52:25.115Z,26.80
2019-05-13T22:54:27.828Z,26.80
2019-05-13T22:56:31.951Z,26.90
2019-05-13T22:58:33.179Z,26.90
2019-05-13T23:00:36.643Z,27.30
2019-05-13T23:02:41.848Z,27.00
2019-05-13T23:04:41.975Z,27.00
2019-05-13T23:06:44.367Z,27.10
2019-05-13T23:08:46.910Z,27.10
2019-05-13T23:10:51.394Z,27.20
2019-05-13T23:12:52.834Z,27.20
2019-05-13T23:14:55.379Z,27.10
2019-05-13T23:16:58.047Z,27.20
2019-05-13T23:19:00.634Z,27.20
2019-05-13T23:21:03.210Z,27.30
2019-05-13T23:23:05.975Z,27.30
2019-05-13T23:25:08.554Z,27.40
2019-05-13T23:27:11.205Z,27.90
2019-05-13T23:29:13.694Z,27.40
2019-05-13T23:31:16.266Z,27.50
2019-05-13T23:33:18.938Z,27.50
2019-05-13T23:35:21.777Z,27.50
2019-05-13T23:37:24.064Z,27.60
2019-05-13T23:39:26.623Z,27.60
2019-05-13T23:41:29.346Z,27.60
2019-05-13T23:43:31.918Z,27.70
2019-05-13T23:45:34.598Z,27.80
2019-05-13T23:47:37.694Z,27.80
2019-05-13T23:49:42.084Z,27.80
2019-05-13T23:51:52.806Z,27.90
2019-05-13T23:54:05.379Z,27.90
